sensor_id;sensor_type;location;lat;lon;timestamp;temperature;humidity
81867;DHT22;71318;-36.550;-64.300;2024-01-11T05:29:47;16.10;76.70
81867;DHT22;71318;-36.550;-64.300;2024-01-11T05:32:13;16.00;77.20
81867;DHT22;71318;-36.550;-64.300;2024-01-11T05:34:40;15.90;77.60
81867;DHT22;71318;-36.550;-64.300;2024-01-11T05:37:08;15.80;78.20
81867;DHT22;71318;-36.550;-64.300;2024-01-11T05:39:34;15.70;78.50
81867;DHT22;71318;-36.550;-64.300;2024-01-11T05:42:01;15.70;78.60
81867;DHT22;71318;-36.550;-64.300;2024-01-11T05:44:27;15.60;79.00
81867;DHT22;71318;-36.550;-64.300;2024-01-11T05:46:54;15.60;79.20
81867;DHT22;71318;-36.550;-64.300;2024-01-11T05:49:20;15.50;79.70
81867;DHT22;71318;-36.550;-64.300;2024-01-11T05:51:47;15.50;79.60
81867;DHT22;71318;-36.550;-64.300;2024-01-11T05:54:13;15.40;80.40
81867;DHT22;71318;-36.550;-64.300;2024-01-11T05:56:39;15.30;81.80
81867;DHT22;71318;-36.550;-64.300;2024-01-11T05:59:06;15.20;82.00
81867;DHT22;71318;-36.550;-64.300;2024-01-11T06:01:32;15.10;82.70
81867;DHT22;71318;-36.550;-64.300;2024-01-11T06:03:59;14.90;83.10
81867;DHT22;71318;-36.550;-64.300;2024-01-11T06:06:25;14.80;83.80
81867;DHT22;71318;-36.550;-64.300;2024-01-11T06:08:51;14.70;83.70
81867;DHT22;71318;-36.550;-64.300;2024-01-11T06:11:18;14.60;83.60
81867;DHT22;71318;-36.550;-64.300;2024-01-11T06:13:44;14.60;83.80
81867;DHT22;71318;-36.550;-64.300;2024-01-11T06:16:10;14.50;84.50
81867;DHT22;71318;-36.550;-64.300;2024-01-11T06:18:37;14.40;84.70
81867;DHT22;71318;-36.550;-64.300;2024-01-11T06:21:03;14.30;85.00
81867;DHT22;71318;-36.550;-64.300;2024-01-11T06:23:30;14.20;85.30
81867;DHT22;71318;-36.550;-64.300;2024-01-11T06:25:56;14.20;85.10
81867;DHT22;71318;-36.550;-64.300;2024-01-11T06:28:22;14.20;85.80
81867;DHT22;71318;-36.550;-64.300;2024-01-11T06:30:49;14.10;86.10
81867;DHT22;71318;-36.550;-64.300;2024-01-11T06:33:15;14.10;86.40
81867;DHT22;71318;-36.550;-64.300;2024-01-11T06:35:42;14.20;86.00
81867;DHT22;71318;-36.550;-64.300;2024-01-11T06:38:08;14.20;85.90
81867;DHT22;71318;-36.550;-64.300;2024-01-11T06:40:34;14.10;86.20
81867;DHT22;71318;-36.550;-64.300;2024-01-11T06:43:01;14.00;86.50
81867;DHT22;71318;-36.550;-64.300;2024-01-11T06:45:27;14.00;86.40
81867;DHT22;71318;-36.550;-64.300;2024-01-11T06:47:54;14.00;86.40
81867;DHT22;71318;-36.550;-64.300;2024-01-11T06:50:20;13.90;87.00
81867;DHT22;71318;-36.550;-64.300;2024-01-11T06:52:46;13.80;87.00
81867;DHT22;71318;-36.550;-64.300;2024-01-11T06:55:13;13.80;87.30
81867;DHT22;71318;-36.550;-64.300;2024-01-11T06:57:39;13.70;87.60
81867;DHT22;71318;-36.550;-64.300;2024-01-11T07:00:06;13.70;88.10
81867;DHT22;71318;-36.550;-64.300;2024-01-11T07:02:33;13.60;88.80
81867;DHT22;71318;-36.550;-64.300;2024-01-11T07:04:59;13.60;89.00
81867;DHT22;71318;-36.550;-64.300;2024-01-11T07:07:25;13.50;89.50
81867;DHT22;71318;-36.550;-64.300;2024-01-11T07:09:52;13.50;90.40
81867;DHT22;71318;-36.550;-64.300;2024-01-11T07:12:21;13.50;91.20
81867;DHT22;71318;-36.550;-64.300;2024-01-11T07:14:47;13.40;91.60
81867;DHT22;71318;-36.550;-64.300;2024-01-11T07:17:14;13.30;92.00
81867;DHT22;71318;-36.550;-64.300;2024-01-11T07:19:40;13.30;91.60
81867;DHT22;71318;-36.550;-64.300;2024-01-11T07:22:06;13.30;92.20
81867;DHT22;71318;-36.550;-64.300;2024-01-11T07:24:33;13.30;92.30
81867;DHT22;71318;-36.550;-64.300;2024-01-11T07:27:06;13.30;92.50
81867;DHT22;71318;-36.550;-64.300;2024-01-11T07:29:33;13.20;93.00
81867;DHT22;71318;-36.550;-64.300;2024-01-11T07:31:59;13.20;93.50
81867;DHT22;71318;-36.550;-64.300;2024-01-11T07:34:26;13.00;94.20
81867;DHT22;71318;-36.550;-64.300;2024-01-11T07:36:53;12.90;94.90
81867;DHT22;71318;-36.550;-64.300;2024-01-11T07:39:19;12.80;96.10
81867;DHT22;71318;-36.550;-64.300;2024-01-11T07:41:45;12.70;95.70
81867;DHT22;71318;-36.550;-64.300;2024-01-11T07:44:12;12.70;96.60
81867;DHT22;71318;-36.550;-64.300;2024-01-11T07:46:38;12.60;97.00
81867;DHT22;71318;-36.550;-64.300;2024-01-11T07:49:05;12.60;97.30
81867;DHT22;71318;-36.550;-64.300;2024-01-11T07:51:32;12.60;96.60
81867;DHT22;71318;-36.550;-64.300;2024-01-11T07:53:58;12.60;96.40
81867;DHT22;71318;-36.550;-64.300;2024-01-11T07:56:24;12.60;96.00
81867;DHT22;71318;-36.550;-64.300;2024-01-11T07:58:51;12.60;96.30
81867;DHT22;71318;-36.550;-64.300;2024-01-11T08:01:17;12.70;96.10
81867;DHT22;71318;-36.550;-64.300;2024-01-11T08:03:44;12.90;95.00
81867;DHT22;71318;-36.550;-64.300;2024-01-11T08:06:13;13.00;94.40
81867;DHT22;71318;-36.550;-64.300;2024-01-11T08:08:39;13.10;93.90
81867;DHT22;71318;-36.550;-64.300;2024-01-11T08:11:09;13.10;93.70
81867;DHT22;71318;-36.550;-64.300;2024-01-11T08:13:36;13.00;94.00
81867;DHT22;71318;-36.550;-64.300;2024-01-11T08:16:03;13.00;94.00
81867;DHT22;71318;-36.550;-64.300;2024-01-11T08:18:30;13.00;94.60
81867;DHT22;71318;-36.550;-64.300;2024-01-11T08:20:57;12.90;94.80
81867;DHT22;71318;-36.550;-64.300;2024-01-11T08:23:23;12.80;95.40
81867;DHT22;71318;-36.550;-64.300;2024-01-11T08:25:49;12.70;96.40
81867;DHT22;71318;-36.550;-64.300;2024-01-11T08:28:16;12.60;98.00
81867;DHT22;71318;-36.550;-64.300;2024-01-11T08:30:42;12.40;99.10
81867;DHT22;71318;-36.550;-64.300;2024-01-11T08:33:08;12.40;99.80
81867;DHT22;71318;-36.550;-64.300;2024-01-11T08:35:35;12.20;99.90
81867;DHT22;71318;-36.550;-64.300;2024-01-11T08:38:02;12.00;99.90
81867;DHT22;71318;-36.550;-64.300;2024-01-11T08:40:28;11.90;99.90
81867;DHT22;71318;-36.550;-64.300;2024-01-11T08:42:55;11.80;99.90
81867;DHT22;71318;-36.550;-64.300;2024-01-11T08:45:21;11.70;99.90
81867;DHT22;71318;-36.550;-64.300;2024-01-11T08:47:48;11.60;99.90
81867;DHT22;71318;-36.550;-64.300;2024-01-11T08:50:14;11.50;99.90
81867;DHT22;71318;-36.550;-64.300;2024-01-11T08:52:41;11.60;99.90
81867;DHT22;71318;-36.550;-64.300;2024-01-11T08:55:08;11.50;99.90
81867;DHT22;71318;-36.550;-64.300;2024-01-11T08:57:35;11.50;99.90
81867;DHT22;71318;-36.550;-64.300;2024-01-11T09:00:05;11.40;99.90
81867;DHT22;71318;-36.550;-64.300;2024-01-11T09:02:34;11.50;99.90
81867;DHT22;71318;-36.550;-64.300;2024-01-11T09:05:01;11.50;99.90
81867;DHT22;71318;-36.550;-64.300;2024-01-11T09:07:28;11.40;99.90
81867;DHT22;71318;-36.550;-64.300;2024-01-11T09:09:54;11.40;99.90
81867;DHT22;71318;-36.550;-64.300;2024-01-11T09:12:21;11.40;99.90
81867;DHT22;71318;-36.550;-64.300;2024-01-11T09:14:47;11.40;99.90
81867;DHT22;71318;-36.550;-64.300;2024-01-11T09:17:14;11.40;99.90
81867;DHT22;71318;-36.550;-64.300;2024-01-11T09:19:40;11.50;99.90
81867;DHT22;71318;-36.550;-64.300;2024-01-11T09:22:07;11.50;99.90
81867;DHT22;71318;-36.550;-64.300;2024-01-11T09:24:36;11.60;99.90
81867;DHT22;71318;-36.550;-64.300;2024-01-11T09:27:02;11.70;99.90
81867;DHT22;71318;-36.550;-64.300;2024-01-11T09:29:29;11.60;99.90
81867;DHT22;71318;-36.550;-64.300;2024-01-11T09:31:56;11.60;99.90
81867;DHT22;71318;-36.550;-64.300;2024-01-11T09:34:22;11.50;99.90
81867;DHT22;71318;-36.550;-64.300;2024-01-11T09:36:48;11.60;99.90
81867;DHT22;71318;-36.550;-64.300;2024-01-11T09:39:15;11.70;99.90
81867;DHT22;71318;-36.550;-64.300;2024-01-11T09:41:42;11.80;99.90
81867;DHT22;71318;-36.550;-64.300;2024-01-11T09:44:12;11.90;99.90
81867;DHT22;71318;-36.550;-64.300;2024-01-11T09:46:39;12.00;99.90
81867;DHT22;71318;-36.550;-64.300;2024-01-11T09:49:05;12.30;99.90
81867;DHT22;71318;-36.550;-64.300;2024-01-11T09:51:33;12.30;99.90
81867;DHT22;71318;-36.550;-64.300;2024-01-11T09:54:00;12.50;99.90
81867;DHT22;71318;-36.550;-64.300;2024-01-11T09:56:26;12.50;99.90
81867;DHT22;71318;-36.550;-64.300;2024-01-11T09:58:54;12.70;99.90
81867;DHT22;71318;-36.550;-64.300;2024-01-11T10:01:20;12.80;99.90
81867;DHT22;71318;-36.550;-64.300;2024-01-11T10:03:47;12.90;99.90
81867;DHT22;71318;-36.550;-64.300;2024-01-11T10:06:14;13.00;99.90
81867;DHT22;71318;-36.550;-64.300;2024-01-11T10:08:41;13.10;99.90
81867;DHT22;71318;-36.550;-64.300;2024-01-11T10:11:07;13.20;99.50
81867;DHT22;71318;-36.550;-64.300;2024-01-11T10:13:34;13.30;99.30
81867;DHT22;71318;-36.550;-64.300;2024-01-11T10:16:08;13.40;98.50
81867;DHT22;71318;-36.550;-64.300;2024-01-11T10:18:35;13.50;99.10
81867;DHT22;71318;-36.550;-64.300;2024-01-11T10:21:02;13.50;98.10
81867;DHT22;71318;-36.550;-64.300;2024-01-11T10:23:29;13.60;97.30
81867;DHT22;71318;-36.550;-64.300;2024-01-11T10:25:56;13.90;96.00
81867;DHT22;71318;-36.550;-64.300;2024-01-11T10:28:24;14.10;95.50
81867;DHT22;71318;-36.550;-64.300;2024-01-11T10:30:52;14.40;95.60
81867;DHT22;71318;-36.550;-64.300;2024-01-11T10:33:21;14.70;93.10
81867;DHT22;71318;-36.550;-64.300;2024-01-11T10:35:48;15.00;92.00
81867;DHT22;71318;-36.550;-64.300;2024-01-11T10:38:15;15.30;91.00
81867;DHT22;71318;-36.550;-64.300;2024-01-11T10:40:42;15.50;89.40
81867;DHT22;71318;-36.550;-64.300;2024-01-11T10:43:09;15.70;87.10
81867;DHT22;71318;-36.550;-64.300;2024-01-11T10:45:39;15.70;87.50
81867;DHT22;71318;-36.550;-64.300;2024-01-11T10:48:14;15.80;86.40
81867;DHT22;71318;-36.550;-64.300;2024-01-11T10:50:42;16.00;84.20
81867;DHT22;71318;-36.550;-64.300;2024-01-11T10:53:12;16.20;86.00
81867;DHT22;71318;-36.550;-64.300;2024-01-11T10:55:39;16.50;82.10
81867;DHT22;71318;-36.550;-64.300;2024-01-11T10:58:05;16.70;82.30
81867;DHT22;71318;-36.550;-64.300;2024-01-11T11:00:32;16.80;81.60
81867;DHT22;71318;-36.550;-64.300;2024-01-11T11:03:01;16.70;80.40
81867;DHT22;71318;-36.550;-64.300;2024-01-11T11:05:28;17.00;80.40
81867;DHT22;71318;-36.550;-64.300;2024-01-11T11:07:56;17.10;80.90
81867;DHT22;71318;-36.550;-64.300;2024-01-11T11:10:23;17.10;76.80
81867;DHT22;71318;-36.550;-64.300;2024-01-11T11:12:51;16.70;76.20
81867;DHT22;71318;-36.550;-64.300;2024-01-11T11:15:23;16.60;75.60
81867;DHT22;71318;-36.550;-64.300;2024-01-11T11:17:49;17.00;76.60
81867;DHT22;71318;-36.550;-64.300;2024-01-11T11:20:16;17.10;76.00
81867;DHT22;71318;-36.550;-64.300;2024-01-11T11:22:42;17.20;75.20
81867;DHT22;71318;-36.550;-64.300;2024-01-11T11:25:09;17.30;73.10
81867;DHT22;71318;-36.550;-64.300;2024-01-11T11:27:39;17.70;75.50
81867;DHT22;71318;-36.550;-64.300;2024-01-11T11:30:05;17.50;69.90
81867;DHT22;71318;-36.550;-64.300;2024-01-11T11:32:35;17.50;73.40
81867;DHT22;71318;-36.550;-64.300;2024-01-11T11:35:02;18.10;70.00
81867;DHT22;71318;-36.550;-64.300;2024-01-11T11:37:29;18.00;70.20
81867;DHT22;71318;-36.550;-64.300;2024-01-11T11:39:57;18.00;67.90
81867;DHT22;71318;-36.550;-64.300;2024-01-11T11:42:25;18.00;67.60
81867;DHT22;71318;-36.550;-64.300;2024-01-11T11:44:52;18.00;68.00
81867;DHT22;71318;-36.550;-64.300;2024-01-11T11:47:19;18.10;65.60
81867;DHT22;71318;-36.550;-64.300;2024-01-11T11:52:34;18.30;65.20
81867;DHT22;71318;-36.550;-64.300;2024-01-11T11:55:01;18.60;64.20
81867;DHT22;71318;-36.550;-64.300;2024-01-11T11:57:28;18.40;63.30
81867;DHT22;71318;-36.550;-64.300;2024-01-11T11:59:57;18.50;62.90
81867;DHT22;71318;-36.550;-64.300;2024-01-11T12:02:33;18.60;62.40
81867;DHT22;71318;-36.550;-64.300;2024-01-11T12:05:02;18.50;62.30
81867;DHT22;71318;-36.550;-64.300;2024-01-11T12:07:29;18.70;62.00
81867;DHT22;71318;-36.550;-64.300;2024-01-11T12:09:56;18.80;61.30
81867;DHT22;71318;-36.550;-64.300;2024-01-11T12:12:22;19.10;60.00
81867;DHT22;71318;-36.550;-64.300;2024-01-11T12:14:49;19.00;58.30
81867;DHT22;71318;-36.550;-64.300;2024-01-11T12:17:16;19.00;58.90
81867;DHT22;71318;-36.550;-64.300;2024-01-11T12:19:42;19.20;58.30
81867;DHT22;71318;-36.550;-64.300;2024-01-11T12:22:08;19.30;58.10
81867;DHT22;71318;-36.550;-64.300;2024-01-11T12:24:35;18.90;57.70
81867;DHT22;71318;-36.550;-64.300;2024-01-11T12:27:02;18.80;57.20
81867;DHT22;71318;-36.550;-64.300;2024-01-11T12:29:29;18.80;59.10
81867;DHT22;71318;-36.550;-64.300;2024-01-11T12:31:56;19.00;58.80
81867;DHT22;71318;-36.550;-64.300;2024-01-11T12:34:24;19.50;55.80
81867;DHT22;71318;-36.550;-64.300;2024-01-11T12:36:51;19.70;56.70
81867;DHT22;71318;-36.550;-64.300;2024-01-11T12:39:19;19.80;55.90
81867;DHT22;71318;-36.550;-64.300;2024-01-11T12:41:51;20.00;55.80
81867;DHT22;71318;-36.550;-64.300;2024-01-11T12:44:17;20.10;58.20
81867;DHT22;71318;-36.550;-64.300;2024-01-11T12:46:49;20.60;55.20
81867;DHT22;71318;-36.550;-64.300;2024-01-11T12:49:15;20.60;54.40
81867;DHT22;71318;-36.550;-64.300;2024-01-11T12:51:42;20.20;52.90
81867;DHT22;71318;-36.550;-64.300;2024-01-11T12:54:11;20.40;53.20
81867;DHT22;71318;-36.550;-64.300;2024-01-11T12:56:43;20.80;54.10
81867;DHT22;71318;-36.550;-64.300;2024-01-11T12:59:09;20.60;51.50
81867;DHT22;71318;-36.550;-64.300;2024-01-11T13:01:37;20.50;51.50
81867;DHT22;71318;-36.550;-64.300;2024-01-11T13:04:03;20.90;52.80
81867;DHT22;71318;-36.550;-64.300;2024-01-11T13:06:31;21.40;50.30
81867;DHT22;71318;-36.550;-64.300;2024-01-11T13:08:58;21.20;48.20
81867;DHT22;71318;-36.550;-64.300;2024-01-11T13:11:24;20.80;49.70
81867;DHT22;71318;-36.550;-64.300;2024-01-11T13:13:51;20.80;50.20
81867;DHT22;71318;-36.550;-64.300;2024-01-11T13:16:17;21.10;51.50
81867;DHT22;71318;-36.550;-64.300;2024-01-11T13:18:47;21.10;48.20
81867;DHT22;71318;-36.550;-64.300;2024-01-11T13:21:13;21.20;47.70
81867;DHT22;71318;-36.550;-64.300;2024-01-11T13:23:40;21.50;48.10
81867;DHT22;71318;-36.550;-64.300;2024-01-11T13:26:07;21.60;46.20
81867;DHT22;71318;-36.550;-64.300;2024-01-11T13:28:34;22.10;46.60
81867;DHT22;71318;-36.550;-64.300;2024-01-11T13:31:00;21.80;48.80
81867;DHT22;71318;-36.550;-64.300;2024-01-11T13:33:28;22.20;44.70
81867;DHT22;71318;-36.550;-64.300;2024-01-11T13:35:54;21.90;46.60
81867;DHT22;71318;-36.550;-64.300;2024-01-11T13:38:20;21.80;45.60
81867;DHT22;71318;-36.550;-64.300;2024-01-11T13:40:47;22.10;46.80
81867;DHT22;71318;-36.550;-64.300;2024-01-11T13:43:13;21.90;43.50
81867;DHT22;71318;-36.550;-64.300;2024-01-11T13:45:40;21.80;44.90
81867;DHT22;71318;-36.550;-64.300;2024-01-11T13:48:06;21.70;44.30
81867;DHT22;71318;-36.550;-64.300;2024-01-11T13:50:33;22.00;45.00
81867;DHT22;71318;-36.550;-64.300;2024-01-11T13:53:00;22.20;44.50
81867;DHT22;71318;-36.550;-64.300;2024-01-11T13:55:26;22.50;43.20
81867;DHT22;71318;-36.550;-64.300;2024-01-11T13:57:52;22.70;43.40
81867;DHT22;71318;-36.550;-64.300;2024-01-11T14:00:19;22.30;43.70
81867;DHT22;71318;-36.550;-64.300;2024-01-11T14:02:46;22.60;42.80
81867;DHT22;71318;-36.550;-64.300;2024-01-11T14:05:16;22.80;41.90
81867;DHT22;71318;-36.550;-64.300;2024-01-11T14:07:43;22.90;45.90
81867;DHT22;71318;-36.550;-64.300;2024-01-11T14:10:10;23.30;43.00
81867;DHT22;71318;-36.550;-64.300;2024-01-11T14:12:37;23.20;44.30
81867;DHT22;71318;-36.550;-64.300;2024-01-11T14:15:04;23.30;43.30
81867;DHT22;71318;-36.550;-64.300;2024-01-11T14:17:32;23.50;44.50
81867;DHT22;71318;-36.550;-64.300;2024-01-11T14:19:59;23.40;44.70
81867;DHT22;71318;-36.550;-64.300;2024-01-11T14:22:25;23.90;44.80
81867;DHT22;71318;-36.550;-64.300;2024-01-11T14:24:52;24.00;40.70
81867;DHT22;71318;-36.550;-64.300;2024-01-11T14:27:21;23.00;43.60
81867;DHT22;71318;-36.550;-64.300;2024-01-11T14:29:48;22.90;44.40
81867;DHT22;71318;-36.550;-64.300;2024-01-11T14:32:15;23.70;44.30
81867;DHT22;71318;-36.550;-64.300;2024-01-11T14:34:44;23.70;42.00
81867;DHT22;71318;-36.550;-64.300;2024-01-11T14:37:11;23.70;44.10
81867;DHT22;71318;-36.550;-64.300;2024-01-11T14:39:38;23.20;43.60
81867;DHT22;71318;-36.550;-64.300;2024-01-11T14:42:05;23.30;44.80
81867;DHT22;71318;-36.550;-64.300;2024-01-11T14:44:31;23.90;42.10
81867;DHT22;71318;-36.550;-64.300;2024-01-11T14:46:58;24.00;41.80
81867;DHT22;71318;-36.550;-64.300;2024-01-11T14:49:24;24.00;42.00
81867;DHT22;71318;-36.550;-64.300;2024-01-11T14:51:51;23.80;41.60
81867;DHT22;71318;-36.550;-64.300;2024-01-11T14:54:17;23.70;41.50
81867;DHT22;71318;-36.550;-64.300;2024-01-11T14:56:46;23.40;43.50
81867;DHT22;71318;-36.550;-64.300;2024-01-11T14:59:13;23.10;45.20
81867;DHT22;71318;-36.550;-64.300;2024-01-11T15:01:40;23.50;42.90
81867;DHT22;71318;-36.550;-64.300;2024-01-11T15:04:06;23.50;40.10
81867;DHT22;71318;-36.550;-64.300;2024-01-11T15:06:32;23.50;42.90
81867;DHT22;71318;-36.550;-64.300;2024-01-11T15:08:59;23.40;42.40
81867;DHT22;71318;-36.550;-64.300;2024-01-11T15:11:25;23.70;42.60
81867;DHT22;71318;-36.550;-64.300;2024-01-11T15:13:53;23.90;39.90
81867;DHT22;71318;-36.550;-64.300;2024-01-11T15:16:19;24.10;41.70
81867;DHT22;71318;-36.550;-64.300;2024-01-11T15:18:46;24.50;42.70
81867;DHT22;71318;-36.550;-64.300;2024-01-11T15:21:12;24.10;41.30
81867;DHT22;71318;-36.550;-64.300;2024-01-11T15:23:38;23.60;42.90
81867;DHT22;71318;-36.550;-64.300;2024-01-11T15:26:06;24.10;39.50
81867;DHT22;71318;-36.550;-64.300;2024-01-11T15:28:32;23.80;41.50
81867;DHT22;71318;-36.550;-64.300;2024-01-11T15:30:59;24.10;42.50
81867;DHT22;71318;-36.550;-64.300;2024-01-11T15:33:25;23.90;41.40
81867;DHT22;71318;-36.550;-64.300;2024-01-11T15:35:51;24.10;43.10
81867;DHT22;71318;-36.550;-64.300;2024-01-11T15:38:18;24.20;43.70
81867;DHT22;71318;-36.550;-64.300;2024-01-11T15:40:44;24.60;42.00
81867;DHT22;71318;-36.550;-64.300;2024-01-11T15:43:11;25.30;39.70
81867;DHT22;71318;-36.550;-64.300;2024-01-11T15:45:37;25.10;40.50
81867;DHT22;71318;-36.550;-64.300;2024-01-11T15:48:04;25.40;39.60
81867;DHT22;71318;-36.550;-64.300;2024-01-11T15:50:31;24.80;40.00
81867;DHT22;71318;-36.550;-64.300;2024-01-11T15:52:57;24.80;39.70
81867;DHT22;71318;-36.550;-64.300;2024-01-11T15:55:24;25.00;41.00
81867;DHT22;71318;-36.550;-64.300;2024-01-11T15:57:51;24.70;40.30
81867;DHT22;71318;-36.550;-64.300;2024-01-11T16:00:20;24.60;40.10
81867;DHT22;71318;-36.550;-64.300;2024-01-11T16:02:46;24.90;39.00
81867;DHT22;71318;-36.550;-64.300;2024-01-11T16:05:13;24.80;39.10
81867;DHT22;71318;-36.550;-64.300;2024-01-11T16:07:39;25.00;40.90
81867;DHT22;71318;-36.550;-64.300;2024-01-11T16:10:06;25.60;39.30
81867;DHT22;71318;-36.550;-64.300;2024-01-11T16:12:33;26.30;38.90
81867;DHT22;71318;-36.550;-64.300;2024-01-11T16:16:09;26.60;40.50
81867;DHT22;71318;-36.550;-64.300;2024-01-11T16:19:17;26.00;39.50
81867;DHT22;71318;-36.550;-64.300;2024-01-11T16:21:44;25.70;38.70
81867;DHT22;71318;-36.550;-64.300;2024-01-11T16:24:10;25.40;40.00
81867;DHT22;71318;-36.550;-64.300;2024-01-11T16:26:37;25.20;40.20
81867;DHT22;71318;-36.550;-64.300;2024-01-11T16:29:03;25.70;40.00
81867;DHT22;71318;-36.550;-64.300;2024-01-11T16:31:30;25.60;38.00
81867;DHT22;71318;-36.550;-64.300;2024-01-11T16:33:56;25.50;37.40
81867;DHT22;71318;-36.550;-64.300;2024-01-11T16:36:23;25.80;38.30
81867;DHT22;71318;-36.550;-64.300;2024-01-11T16:38:49;26.60;38.20
81867;DHT22;71318;-36.550;-64.300;2024-01-11T16:41:16;26.30;37.50
81867;DHT22;71318;-36.550;-64.300;2024-01-11T16:43:46;25.70;39.00
81867;DHT22;71318;-36.550;-64.300;2024-01-11T16:46:18;26.00;36.10
81867;DHT22;71318;-36.550;-64.300;2024-01-11T16:48:45;26.70;36.90
81867;DHT22;71318;-36.550;-64.300;2024-01-11T16:51:11;25.90;36.80
81867;DHT22;71318;-36.550;-64.300;2024-01-11T16:53:43;26.00;37.70
81867;DHT22;71318;-36.550;-64.300;2024-01-11T16:56:10;26.40;36.80
81867;DHT22;71318;-36.550;-64.300;2024-01-11T16:58:36;26.70;37.00
81867;DHT22;71318;-36.550;-64.300;2024-01-11T17:01:03;26.70;38.90
81867;DHT22;71318;-36.550;-64.300;2024-01-11T17:03:30;26.50;38.70
81867;DHT22;71318;-36.550;-64.300;2024-01-11T17:05:56;26.60;36.10
81867;DHT22;71318;-36.550;-64.300;2024-01-11T17:08:23;26.90;39.30
81867;DHT22;71318;-36.550;-64.300;2024-01-11T17:10:49;27.00;35.10
81867;DHT22;71318;-36.550;-64.300;2024-01-11T17:13:17;26.70;35.90
81867;DHT22;71318;-36.550;-64.300;2024-01-11T17:15:44;26.30;34.30
81867;DHT22;71318;-36.550;-64.300;2024-01-11T17:18:10;26.40;36.80
81867;DHT22;71318;-36.550;-64.300;2024-01-11T17:20:37;26.80;37.80
81867;DHT22;71318;-36.550;-64.300;2024-01-11T17:23:03;26.80;37.30
81867;DHT22;71318;-36.550;-64.300;2024-01-11T17:25:29;27.10;35.00
81867;DHT22;71318;-36.550;-64.300;2024-01-11T17:27:56;26.60;34.50
81867;DHT22;71318;-36.550;-64.300;2024-01-11T17:30:22;26.40;37.40
81867;DHT22;71318;-36.550;-64.300;2024-01-11T17:32:49;26.70;37.20
81867;DHT22;71318;-36.550;-64.300;2024-01-11T17:35:15;26.30;37.40
81867;DHT22;71318;-36.550;-64.300;2024-01-11T17:37:42;26.90;36.30
81867;DHT22;71318;-36.550;-64.300;2024-01-11T17:40:08;26.30;35.10
81867;DHT22;71318;-36.550;-64.300;2024-01-11T17:42:35;26.60;37.00
81867;DHT22;71318;-36.550;-64.300;2024-01-11T17:45:02;27.00;36.40
81867;DHT22;71318;-36.550;-64.300;2024-01-11T17:47:29;27.00;37.40
81867;DHT22;71318;-36.550;-64.300;2024-01-11T17:49:55;26.60;37.00
81867;DHT22;71318;-36.550;-64.300;2024-01-11T17:52:22;27.10;36.40
81867;DHT22;71318;-36.550;-64.300;2024-01-11T17:54:48;26.90;36.20
81867;DHT22;71318;-36.550;-64.300;2024-01-11T17:57:15;27.00;36.20
81867;DHT22;71318;-36.550;-64.300;2024-01-11T17:59:44;27.00;36.00
